createdAt,value
2018-10-18T00:00:09.547Z,12.88
2018-10-18T00:02:44.329Z,12.90
2018-10-18T00:05:19.962Z,12.93
2018-10-18T00:07:55.806Z,12.95
2018-10-18T00:10:30.685Z,12.91
2018-10-18T00:13:05.515Z,12.94
2018-10-18T00:15:39.868Z,12.97
2018-10-18T00:18:15.752Z,12.92
2018-10-18T00:20:49.594Z,12.92
2018-10-18T00:23:23.145Z,12.92
2018-10-18T00:25:55.954Z,12.88
2018-10-18T00:28:29.768Z,12.89
2018-10-18T00:31:02.788Z,12.90
2018-10-18T00:33:38.717Z,12.86
2018-10-18T00:36:19.857Z,12.87
2018-10-18T00:38:56.187Z,12.86
2018-10-18T00:41:33.694Z,12.84
2018-10-18T00:44:08.239Z,12.83
2018-10-18T00:46:41.847Z,12.82
2018-10-18T00:49:16.513Z,12.76
2018-10-18T00:51:50.025Z,12.69
2018-10-18T00:54:23.536Z,12.65
2018-10-18T00:56:56.254Z,12.65
2018-10-18T00:59:30.317Z,12.60
2018-10-18T01:02:03.761Z,12.57
2018-10-18T01:04:37.301Z,12.57
2018-10-18T01:07:10.164Z,12.54
2018-10-18T01:09:43.291Z,12.49
2018-10-18T01:12:16.235Z,12.46
2018-10-18T01:14:48.546Z,12.47
2018-10-18T01:17:21.789Z,12.53
2018-10-18T01:19:54.415Z,12.62
2018-10-18T01:22:26.872Z,12.84
2018-10-18T01:25:02.013Z,13.00
2018-10-18T01:27:35.174Z,13.07
2018-10-18T01:30:15.302Z,13.23
2018-10-18T01:32:47.806Z,13.29
2018-10-18T01:35:20.205Z,13.40
2018-10-18T01:37:52.621Z,13.48
2018-10-18T01:40:25.427Z,13.65
2018-10-18T01:42:57.746Z,13.72
2018-10-18T01:45:30.088Z,13.79
2018-10-18T01:48:04.860Z,13.87
2018-10-18T01:50:37.236Z,13.93
2018-10-18T01:53:09.745Z,13.99
2018-10-18T01:55:42.538Z,14.07
2018-10-18T01:58:18.497Z,14.15
2018-10-18T02:00:50.817Z,14.18
2018-10-18T02:03:23.557Z,14.18
2018-10-18T02:05:55.934Z,14.18
2018-10-18T02:08:28.282Z,14.18
2018-10-18T02:11:01.053Z,14.19
2018-10-18T02:13:33.517Z,14.20
2018-10-18T02:16:06.673Z,14.18
2018-10-18T02:18:40.301Z,14.16
2018-10-18T02:21:12.705Z,14.20
2018-10-18T02:23:46.233Z,14.19
2018-10-18T02:26:19.100Z,14.13
2018-10-18T02:28:51.746Z,14.15
2018-10-18T02:31:24.941Z,14.10
2018-10-18T02:33:58.008Z,14.05
2018-10-18T02:36:30.350Z,14.08
2018-10-18T02:39:04.615Z,14.09
2018-10-18T02:41:37.593Z,14.13
2018-10-18T02:44:09.985Z,14.10
2018-10-18T02:46:42.324Z,14.13
2018-10-18T02:49:15.125Z,14.18
2018-10-18T02:51:47.452Z,14.17
2018-10-18T02:54:19.992Z,14.16
2018-10-18T02:56:54.657Z,14.06
2018-10-18T02:59:27.016Z,14.06
2018-10-18T03:01:59.369Z,14.04
2018-10-18T03:04:32.156Z,14.01
2018-10-18T03:07:04.970Z,13.99
2018-10-18T03:09:37.303Z,13.91
2018-10-18T03:12:10.193Z,13.91
2018-10-18T03:14:42.619Z,13.93
2018-10-18T03:17:14.954Z,13.91
2018-10-18T03:19:47.661Z,13.92
2018-10-18T03:22:20.645Z,13.89
2018-10-18T03:24:53.690Z,13.97
2018-10-18T03:27:26.504Z,13.92
2018-10-18T03:29:59.743Z,13.91
2018-10-18T03:32:33.714Z,13.83
2018-10-18T03:35:08.149Z,13.83
2018-10-18T03:37:40.776Z,13.80
2018-10-18T03:40:13.225Z,13.78
2018-10-18T03:42:48.067Z,13.71
2018-10-18T03:45:20.588Z,13.64
2018-10-18T03:47:53.185Z,13.57
2018-10-18T03:50:25.985Z,13.57
2018-10-18T03:52:58.275Z,13.61
2018-10-18T03:55:30.640Z,13.62
2018-10-18T03:58:02.901Z,13.69
2018-10-18T04:00:34.591Z,13.69
2018-10-18T04:03:07.237Z,13.64
2018-10-18T04:05:39.626Z,13.57
2018-10-18T04:08:13.253Z,13.53
2018-10-18T04:10:46.024Z,13.52
2018-10-18T04:13:19.198Z,13.55
2018-10-18T04:15:51.584Z,13.63
2018-10-18T04:18:25.474Z,13.74
2018-10-18T04:20:57.807Z,13.77
2018-10-18T04:23:32.979Z,13.71
2018-10-18T04:26:05.789Z,13.63
2018-10-18T04:28:38.108Z,13.62
2018-10-18T04:31:10.897Z,13.61
2018-10-18T04:33:43.701Z,13.52
2018-10-18T04:36:16.677Z,13.44
2018-10-18T04:38:48.944Z,13.38
2018-10-18T04:41:21.841Z,13.38
2018-10-18T04:43:56.018Z,13.37
2018-10-18T04:46:29.416Z,13.37
2018-10-18T04:49:02.138Z,13.36
2018-10-18T04:51:34.573Z,13.35
2018-10-18T04:54:07.481Z,13.29
2018-10-18T04:56:40.934Z,13.30
2018-10-18T04:59:13.235Z,13.22
2018-10-18T05:01:46.323Z,13.24
2018-10-18T05:04:19.033Z,13.26
2018-10-18T05:06:51.411Z,13.26
2018-10-18T05:09:23.734Z,13.26
2018-10-18T05:11:56.416Z,13.25
2018-10-18T05:14:28.842Z,13.27
2018-10-18T05:17:02.102Z,13.24
2018-10-18T05:19:34.680Z,13.21
2018-10-18T05:22:24.801Z,13.19
2018-10-18T05:24:57.619Z,13.23
2018-10-18T05:27:31.266Z,13.18
2018-10-18T05:30:06.713Z,13.14
2018-10-18T05:32:39.333Z,13.03
2018-10-18T05:35:12.202Z,13.02
2018-10-18T05:37:44.752Z,13.03
2018-10-18T05:40:17.213Z,13.07
2018-10-18T05:42:51.915Z,13.07
2018-10-18T05:45:24.529Z,12.98
2018-10-18T05:47:58.051Z,12.96
2018-10-18T05:50:30.731Z,13.01
2018-10-18T05:53:03.573Z,13.01
2018-10-18T05:55:36.229Z,12.99
2018-10-18T05:58:10.391Z,12.99
2018-10-18T06:00:42.985Z,12.98
2018-10-18T06:03:16.488Z,12.93
2018-10-18T06:05:50.462Z,12.90
2018-10-18T06:08:23.415Z,12.88
2018-10-18T06:11:29.369Z,12.92
2018-10-18T06:14:03.397Z,12.97
2018-10-18T06:16:35.932Z,13.02
2018-10-18T06:19:09.964Z,13.06
2018-10-18T06:21:42.513Z,13.08
2018-10-18T06:24:15.152Z,13.09
2018-10-18T06:26:48.241Z,13.12
2018-10-18T06:29:20.842Z,13.17
2018-10-18T06:31:55.509Z,13.21
2018-10-18T06:34:30.265Z,13.29
2018-10-18T06:37:03.136Z,13.40
2018-10-18T06:39:37.025Z,13.57
2018-10-18T06:42:09.512Z,13.64
2018-10-18T06:44:43.933Z,13.71
2018-10-18T06:47:17.161Z,13.80
2018-10-18T06:49:51.532Z,13.88
2018-10-18T06:52:24.132Z,13.96
2018-10-18T06:54:57.111Z,13.98
2018-10-18T06:57:29.550Z,13.96
2018-10-18T07:00:05.171Z,13.89
2018-10-18T07:02:37.897Z,13.86
2018-10-18T07:05:13.362Z,13.86
2018-10-18T07:07:48.299Z,13.84
2018-10-18T07:10:21.303Z,13.87
2018-10-18T07:12:54.009Z,13.86
2018-10-18T07:15:26.741Z,13.84
2018-10-18T07:17:59.644Z,13.83
2018-10-18T07:20:34.306Z,13.81
2018-10-18T07:23:09.152Z,13.81
2018-10-18T07:25:43.796Z,13.84
2018-10-18T07:28:16.285Z,13.87
2018-10-18T07:30:50.893Z,13.96
2018-10-18T07:33:25.583Z,14.02
2018-10-18T07:35:59.828Z,14.11
2018-10-18T07:38:35.466Z,14.29
2018-10-18T07:41:08.827Z,14.46
2018-10-18T07:43:42.682Z,14.62
2018-10-18T07:46:16.879Z,14.73
2018-10-18T07:48:50.154Z,14.85
2018-10-18T07:51:22.884Z,14.97
2018-10-18T07:53:55.794Z,15.06
2018-10-18T07:56:29.029Z,15.14
2018-10-18T07:59:02.322Z,15.28
2018-10-18T08:01:35.452Z,15.35
2018-10-18T08:04:07.965Z,15.48
2018-10-18T08:06:40.573Z,15.56
2018-10-18T08:09:14.157Z,15.64
2018-10-18T08:11:51.582Z,15.64
2018-10-18T08:14:25.763Z,15.57
2018-10-18T08:16:58.752Z,15.53
2018-10-18T08:19:35.269Z,15.51
2018-10-18T08:22:08.533Z,15.53
2018-10-18T08:24:41.131Z,15.52
2018-10-18T08:27:17.789Z,15.53
2018-10-18T08:29:51.960Z,15.53
2018-10-18T08:32:32.479Z,15.52
2018-10-18T08:35:06.018Z,15.56
2018-10-18T08:37:40.221Z,15.60
2018-10-18T08:40:13.450Z,15.59
2018-10-18T08:42:46.759Z,15.57
2018-10-18T08:45:21.122Z,15.60
2018-10-18T08:47:54.695Z,15.55
2018-10-18T08:50:28.127Z,15.53
2018-10-18T08:53:01.389Z,15.56
2018-10-18T08:55:34.012Z,15.62
2018-10-18T08:58:08.387Z,15.68
2018-10-18T09:00:42.056Z,15.73
2018-10-18T09:03:14.788Z,15.75
2018-10-18T09:05:49.185Z,15.73
2018-10-18T09:08:24.222Z,15.76
2018-10-18T09:11:01.638Z,15.80
2018-10-18T09:13:39.041Z,15.83
2018-10-18T09:16:13.232Z,15.92
2018-10-18T09:18:47.748Z,15.98
2018-10-18T09:21:21.333Z,15.99
2018-10-18T09:23:55.753Z,16.08
2018-10-18T09:26:30.815Z,16.11
2018-10-18T09:29:03.558Z,16.11
2018-10-18T09:31:37.077Z,16.15
2018-10-18T09:34:12.285Z,16.29
2018-10-18T09:36:44.807Z,16.50
2018-10-18T09:39:20.967Z,16.58
2018-10-18T09:41:54.476Z,16.58
2018-10-18T09:44:30.156Z,16.65
2018-10-18T09:47:02.660Z,16.86
2018-10-18T09:49:37.447Z,17.11
2018-10-18T09:52:10.941Z,17.31
2018-10-18T09:54:43.790Z,17.39
2018-10-18T09:57:16.544Z,17.46
2018-10-18T09:59:55.102Z,17.53
2018-10-18T10:02:51.972Z,17.51
2018-10-18T10:05:41.923Z,17.52
2018-10-18T10:08:15.103Z,17.48
2018-10-18T10:10:48.524Z,17.53
2018-10-18T10:13:25.156Z,17.84
2018-10-18T10:16:00.768Z,17.90
2018-10-18T10:18:34.877Z,17.94
2018-10-18T10:21:08.165Z,18.04
2018-10-18T10:23:41.375Z,18.08
2018-10-18T10:26:16.058Z,18.34
2018-10-18T10:28:50.889Z,18.73
2018-10-18T10:31:23.725Z,18.96
2018-10-18T10:33:57.137Z,18.78
2018-10-18T10:36:32.005Z,18.50
2018-10-18T10:39:07.261Z,18.14
2018-10-18T10:41:44.165Z,17.76
2018-10-18T10:44:17.431Z,17.50
2018-10-18T10:46:50.854Z,17.24
2018-10-18T10:49:24.957Z,17.08
2018-10-18T10:51:58.982Z,16.97
2018-10-18T10:54:32.577Z,17.17
2018-10-18T10:57:07.387Z,17.77
2018-10-18T10:59:41.391Z,18.56
2018-10-18T11:02:15.924Z,19.29
2018-10-18T11:04:49.628Z,19.79
2018-10-18T11:07:23.404Z,20.30
2018-10-18T11:09:56.689Z,20.53
2018-10-18T11:12:33.420Z,20.26
2018-10-18T11:15:08.977Z,19.65
2018-10-18T11:17:43.913Z,19.43
2018-10-18T11:20:21.137Z,19.83
2018-10-18T11:22:54.026Z,20.24
2018-10-18T11:25:28.582Z,20.72
2018-10-18T11:28:03.669Z,20.85
2018-10-18T11:30:38.270Z,20.13
2018-10-18T11:33:12.955Z,19.36
2018-10-18T11:35:46.289Z,18.81
2018-10-18T11:38:21.210Z,18.55
2018-10-18T11:40:54.945Z,18.48
2018-10-18T11:43:30.731Z,18.74
2018-10-18T11:46:06.115Z,18.83
2018-10-18T11:48:39.419Z,18.85
2018-10-18T11:51:12.715Z,18.62
2018-10-18T11:53:48.470Z,18.85
2018-10-18T11:56:21.088Z,19.22
2018-10-18T11:58:55.041Z,19.71
2018-10-18T12:01:31.690Z,20.09
2018-10-18T12:04:12.173Z,20.42
2018-10-18T12:06:46.108Z,20.47
2018-10-18T12:09:21.389Z,20.24
2018-10-18T12:11:54.619Z,19.84
2018-10-18T12:14:29.693Z,19.54
2018-10-18T12:17:04.233Z,19.34
2018-10-18T12:19:36.829Z,19.17
2018-10-18T12:22:12.215Z,19.36
2018-10-18T12:24:46.117Z,19.65
2018-10-18T12:27:20.196Z,19.77
2018-10-18T12:29:54.184Z,19.82
2018-10-18T12:32:29.018Z,19.85
2018-10-18T12:35:06.162Z,20.11
2018-10-18T12:37:41.448Z,20.30
2018-10-18T12:40:16.313Z,19.97
2018-10-18T12:42:51.181Z,19.48
2018-10-18T12:45:24.040Z,19.15
2018-10-18T12:47:59.752Z,18.86
2018-10-18T12:50:33.093Z,18.96
2018-10-18T12:53:07.353Z,19.34
2018-10-18T12:55:50.341Z,19.63
2018-10-18T12:58:27.736Z,19.76
2018-10-18T13:01:03.316Z,19.87
2018-10-18T13:03:39.631Z,20.19
2018-10-18T13:06:13.036Z,20.59
2018-10-18T13:08:55.723Z,20.84
2018-10-18T13:11:33.564Z,21.10
2018-10-18T13:14:07.936Z,21.03
2018-10-18T13:16:43.974Z,20.85
2018-10-18T13:19:20.306Z,20.65
2018-10-18T13:21:55.846Z,20.47
2018-10-18T13:24:30.548Z,20.06
2018-10-18T13:27:06.554Z,19.82
2018-10-18T13:29:40.384Z,20.02
2018-10-18T13:32:14.522Z,20.36
2018-10-18T13:34:51.185Z,20.49
2018-10-18T13:37:25.024Z,20.17
2018-10-18T13:39:59.310Z,19.93
2018-10-18T13:42:32.010Z,19.90
2018-10-18T13:45:09.729Z,19.82
2018-10-18T13:47:47.413Z,19.84
2018-10-18T13:50:23.006Z,20.05
2018-10-18T13:52:58.334Z,20.45
2018-10-18T13:55:33.730Z,20.71
2018-10-18T13:58:10.169Z,20.48
2018-10-18T14:00:44.214Z,19.96
2018-10-18T14:03:18.970Z,19.52
2018-10-18T14:05:51.689Z,19.23
2018-10-18T14:08:28.337Z,18.97
2018-10-18T14:11:02.309Z,18.79
2018-10-18T14:13:37.604Z,18.62
2018-10-18T14:16:10.516Z,18.51
2018-10-18T14:18:45.937Z,18.48
2018-10-18T14:21:21.061Z,18.39
2018-10-18T14:23:56.791Z,18.28
2018-10-18T14:26:31.808Z,18.16
2018-10-18T14:29:05.275Z,18.13
2018-10-18T14:31:40.300Z,18.07
2018-10-18T14:34:14.097Z,18.08
2018-10-18T14:36:48.227Z,18.06
2018-10-18T14:39:22.624Z,18.09
2018-10-18T14:41:56.610Z,18.09
2018-10-18T14:44:30.443Z,18.20
2018-10-18T14:47:09.110Z,18.48
2018-10-18T14:49:42.894Z,18.68
2018-10-18T14:52:15.639Z,18.69
2018-10-18T14:54:48.824Z,18.58
2018-10-18T14:57:22.322Z,18.38
2018-10-18T14:59:55.273Z,18.14
2018-10-18T15:02:28.228Z,17.99
2018-10-18T15:05:02.434Z,17.83
2018-10-18T15:07:35.970Z,17.75
2018-10-18T15:10:12.593Z,17.68
2018-10-18T15:12:46.344Z,17.67
2018-10-18T15:15:20.404Z,17.54
2018-10-18T15:17:54.350Z,17.43
2018-10-18T15:20:29.260Z,17.38
2018-10-18T15:23:03.928Z,17.36
2018-10-18T15:25:37.805Z,17.26
2018-10-18T15:28:11.235Z,17.20
2018-10-18T15:30:46.326Z,17.14
2018-10-18T15:33:20.347Z,17.12
2018-10-18T15:35:55.525Z,17.11
2018-10-18T15:38:29.355Z,17.07
2018-10-18T15:43:36.261Z,17.03
2018-10-18T15:46:08.969Z,16.95
2018-10-18T15:48:42.729Z,16.91
2018-10-18T15:51:17.648Z,16.88
2018-10-18T15:53:52.687Z,16.82
2018-10-18T15:56:25.694Z,16.78
2018-10-18T15:58:58.859Z,16.75
2018-10-18T16:01:32.121Z,16.75
2018-10-18T16:04:06.145Z,16.67
2018-10-18T16:06:38.929Z,16.61
2018-10-18T16:09:17.038Z,16.54
2018-10-18T16:11:51.041Z,16.48
2018-10-18T16:14:24.701Z,16.43
2018-10-18T16:17:03.457Z,16.39
2018-10-18T16:19:37.195Z,16.34
2018-10-18T16:22:11.259Z,16.31
2018-10-18T16:24:49.587Z,16.22
2018-10-18T16:27:23.946Z,16.13
2018-10-18T16:29:58.439Z,16.03
2018-10-18T16:32:32.011Z,15.92
2018-10-18T16:35:10.312Z,15.87
2018-10-18T16:37:46.113Z,15.73
2018-10-18T16:40:24.006Z,15.63
2018-10-18T16:42:57.126Z,15.59
2018-10-18T16:45:30.549Z,15.50
2018-10-18T16:48:05.728Z,15.47
2018-10-18T16:50:38.521Z,15.41
2018-10-18T16:53:11.278Z,15.38
2018-10-18T16:55:46.008Z,15.40
2018-10-18T16:58:20.214Z,15.31
2018-10-18T17:00:53.744Z,15.24
2018-10-18T17:03:28.652Z,15.21
2018-10-18T17:06:02.005Z,15.18
2018-10-18T17:08:34.728Z,15.17
2018-10-18T17:11:11.838Z,15.12
2018-10-18T17:13:48.608Z,15.08
2018-10-18T17:16:24.888Z,15.13
2018-10-18T17:18:59.371Z,15.08
2018-10-18T17:21:34.895Z,15.04
2018-10-18T17:24:10.751Z,14.98
2018-10-18T17:26:45.609Z,14.93
2018-10-18T17:29:20.302Z,14.90
2018-10-18T17:31:57.433Z,14.89
2018-10-18T17:34:31.543Z,14.90
2018-10-18T17:37:05.010Z,14.82
2018-10-18T17:39:38.470Z,14.79
2018-10-18T17:42:11.361Z,14.81
2018-10-18T17:44:45.514Z,14.80
2018-10-18T17:47:19.674Z,14.75
2018-10-18T17:49:56.013Z,14.71
2018-10-18T17:52:29.319Z,14.73
2018-10-18T17:55:04.818Z,14.71
2018-10-18T17:57:38.734Z,14.69
2018-10-18T18:00:24.385Z,14.75
2018-10-18T18:02:58.614Z,14.76
2018-10-18T18:05:33.214Z,14.74
2018-10-18T18:08:08.160Z,14.73
2018-10-18T18:10:41.470Z,14.74
2018-10-18T18:13:17.000Z,14.73
2018-10-18T18:15:51.047Z,14.72
2018-10-18T18:18:24.730Z,14.75
2018-10-18T18:20:58.355Z,14.78
2018-10-18T18:23:32.777Z,14.80
2018-10-18T18:26:08.745Z,14.78
2018-10-18T18:28:43.678Z,14.76
2018-10-18T18:31:21.169Z,14.72
2018-10-18T18:33:57.131Z,14.68
2018-10-18T18:36:31.414Z,14.66
2018-10-18T18:39:08.234Z,14.59
2018-10-18T18:41:41.116Z,14.59
2018-10-18T18:44:15.540Z,14.54
2018-10-18T18:46:48.747Z,14.47
2018-10-18T18:49:22.494Z,14.39
2018-10-18T18:51:58.547Z,14.35
2018-10-18T18:54:33.081Z,14.25
2018-10-18T18:57:08.392Z,14.11
2018-10-18T18:59:40.918Z,14.13
2018-10-18T19:02:16.300Z,14.09
2018-10-18T19:04:49.764Z,14.08
2018-10-18T19:07:22.425Z,14.03
2018-10-18T19:09:56.424Z,14.01
2018-10-18T19:12:30.773Z,13.99
2018-10-18T19:15:09.530Z,13.98
2018-10-18T19:17:45.064Z,13.95
2018-10-18T19:20:18.696Z,13.94
2018-10-18T19:22:55.434Z,13.92
2018-10-18T19:25:29.494Z,13.89
2018-10-18T19:28:03.006Z,13.94
2018-10-18T19:30:38.785Z,14.00
2018-10-18T19:33:11.578Z,14.05
2018-10-18T19:35:46.149Z,13.99
2018-10-18T19:38:21.254Z,13.99
2018-10-18T19:41:00.190Z,13.98
2018-10-18T19:43:34.847Z,13.97
2018-10-18T19:46:11.844Z,14.02
2018-10-18T19:48:47.337Z,13.97
2018-10-18T19:51:20.760Z,14.00
2018-10-18T19:53:53.589Z,13.97
2018-10-18T19:56:33.487Z,13.91
2018-10-18T19:59:07.621Z,13.94
2018-10-18T20:01:41.804Z,13.92
2018-10-18T20:04:19.469Z,13.99
2018-10-18T20:06:54.097Z,13.89
2018-10-18T20:09:26.812Z,13.86
2018-10-18T20:12:00.235Z,13.86
2018-10-18T20:14:38.548Z,13.85
2018-10-18T20:17:11.963Z,13.90
2018-10-18T20:19:44.698Z,13.89
2018-10-18T20:22:19.514Z,13.94
2018-10-18T20:24:52.784Z,13.86
2018-10-18T20:27:29.175Z,13.83
2018-10-18T20:30:04.163Z,13.85
2018-10-18T20:32:37.458Z,13.90
2018-10-18T20:35:12.736Z,13.89
2018-10-18T20:37:46.190Z,13.94
2018-10-18T20:40:21.520Z,13.95
2018-10-18T20:42:55.867Z,13.85
2018-10-18T20:45:36.122Z,13.80
2018-10-18T20:48:10.185Z,13.83
2018-10-18T20:50:44.550Z,13.77
2018-10-18T20:53:24.772Z,13.77
2018-10-18T20:56:01.066Z,13.70
2018-10-18T20:58:40.444Z,13.65
2018-10-18T21:01:14.308Z,13.64
2018-10-18T21:03:48.313Z,13.64
2018-10-18T21:06:24.306Z,13.65
2018-10-18T21:08:57.739Z,13.66
2018-10-18T21:11:32.493Z,13.70
2018-10-18T21:14:07.085Z,13.69
2018-10-18T21:16:43.346Z,13.69
2018-10-18T21:19:16.534Z,13.64
2018-10-18T21:21:51.505Z,13.64
2018-10-18T21:24:24.923Z,13.61
2018-10-18T21:26:57.799Z,13.69
2018-10-18T21:29:33.219Z,13.70
2018-10-18T21:32:05.956Z,13.70
2018-10-18T21:34:38.794Z,13.74
2018-10-18T21:37:15.831Z,13.68
2018-10-18T21:39:50.861Z,13.66
2018-10-18T21:42:23.855Z,13.69
2018-10-18T21:44:57.194Z,13.65
2018-10-18T21:47:32.332Z,13.67
2018-10-18T21:50:06.436Z,13.63
2018-10-18T21:52:40.533Z,13.61
2018-10-18T21:55:14.710Z,13.59
2018-10-18T21:57:47.335Z,13.56
2018-10-18T22:00:22.722Z,13.55
2018-10-18T22:02:57.233Z,13.56
2018-10-18T22:05:29.714Z,13.57
2018-10-18T22:08:04.546Z,13.57
2018-10-18T22:10:37.223Z,13.63
2018-10-18T22:13:10.112Z,13.63
2018-10-18T22:15:45.508Z,13.63
2018-10-18T22:18:18.474Z,13.59
2018-10-18T22:20:54.643Z,13.57
2018-10-18T22:23:27.469Z,13.57
2018-10-18T22:26:02.052Z,13.56
2018-10-18T22:28:36.068Z,13.61
2018-10-18T22:31:08.658Z,13.64
2018-10-18T22:33:42.220Z,13.59
2018-10-18T22:36:15.056Z,13.58
2018-10-18T22:38:47.809Z,13.56
2018-10-18T22:41:23.249Z,13.62
2018-10-18T22:43:59.322Z,13.61
2018-10-18T22:46:33.514Z,13.55
2018-10-18T22:49:08.627Z,13.53
2018-10-18T22:51:41.130Z,13.51
2018-10-18T22:54:13.685Z,13.55
2018-10-18T22:56:47.698Z,13.54
2018-10-18T22:59:22.573Z,13.61
2018-10-18T23:01:55.332Z,13.59
2018-10-18T23:04:28.577Z,13.56
2018-10-18T23:07:01.084Z,13.56
2018-10-18T23:09:33.599Z,13.55
2018-10-18T23:12:07.515Z,13.56
2018-10-18T23:14:40.877Z,13.58
2018-10-18T23:17:13.431Z,13.54
2018-10-18T23:19:46.377Z,13.51
2018-10-18T23:22:19.015Z,13.47
2018-10-18T23:24:51.601Z,13.49
2018-10-18T23:27:29.584Z,13.50
2018-10-18T23:30:04.417Z,13.47
2018-10-18T23:32:36.988Z,13.42
2018-10-18T23:35:10.485Z,13.47
2018-10-18T23:37:43.509Z,13.46
2018-10-18T23:40:17.214Z,13.41
2018-10-18T23:42:51.104Z,13.45
2018-10-18T23:45:24.470Z,13.45
2018-10-18T23:47:57.037Z,13.41
2018-10-18T23:50:30.097Z,13.40
2018-10-18T23:53:03.248Z,13.37
2018-10-18T23:55:36.323Z,13.38
2018-10-18T23:58:10.442Z,13.34
